sensor_id;sensor_type;location;lat;lon;timestamp;P1;durP1;ratioP1;P2;durP2;ratioP2
5117;SDS011;2578;51.622;7.046;2024-03-29T00:01:32;89.20;;;19.90;;
5117;SDS011;2578;51.622;7.046;2024-03-29T00:03:57;91.20;;;19.40;;
5117;SDS011;2578;51.622;7.046;2024-03-29T00:06:23;88.77;;;18.90;;
5117;SDS011;2578;51.622;7.046;2024-03-29T00:08:49;88.60;;;18.80;;
5117;SDS011;2578;51.622;7.046;2024-03-29T00:11:14;88.90;;;19.10;;
5117;SDS011;2578;51.622;7.046;2024-03-29T00:13:40;91.03;;;19.90;;
5117;SDS011;2578;51.622;7.046;2024-03-29T00:16:06;90.00;;;20.30;;
5117;SDS011;2578;51.622;7.046;2024-03-29T00:18:31;90.77;;;21.80;;
5117;SDS011;2578;51.622;7.046;2024-03-29T00:20:57;89.53;;;22.13;;
5117;SDS011;2578;51.622;7.046;2024-03-29T00:23:23;90.47;;;22.70;;
5117;SDS011;2578;51.622;7.046;2024-03-29T00:25:48;91.70;;;21.37;;
5117;SDS011;2578;51.622;7.046;2024-03-29T00:28:14;90.83;;;21.80;;
5117;SDS011;2578;51.622;7.046;2024-03-29T00:30:39;89.40;;;21.60;;
5117;SDS011;2578;51.622;7.046;2024-03-29T00:33:05;89.97;;;21.50;;
5117;SDS011;2578;51.622;7.046;2024-03-29T00:35:31;89.80;;;21.10;;
5117;SDS011;2578;51.622;7.046;2024-03-29T00:37:56;89.20;;;20.00;;
5117;SDS011;2578;51.622;7.046;2024-03-29T00:40:22;89.13;;;20.53;;
5117;SDS011;2578;51.622;7.046;2024-03-29T00:42:48;89.70;;;21.80;;
5117;SDS011;2578;51.622;7.046;2024-03-29T00:45:13;88.97;;;20.90;;
5117;SDS011;2578;51.622;7.046;2024-03-29T00:47:39;88.10;;;19.10;;
5117;SDS011;2578;51.622;7.046;2024-03-29T00:50:04;88.77;;;19.20;;
5117;SDS011;2578;51.622;7.046;2024-03-29T00:52:30;86.97;;;19.20;;
5117;SDS011;2578;51.622;7.046;2024-03-29T00:54:56;88.17;;;19.60;;
5117;SDS011;2578;51.622;7.046;2024-03-29T00:57:22;90.40;;;20.63;;
5117;SDS011;2578;51.622;7.046;2024-03-29T00:59:47;88.50;;;20.60;;
5117;SDS011;2578;51.622;7.046;2024-03-29T01:02:13;89.40;;;20.90;;
5117;SDS011;2578;51.622;7.046;2024-03-29T01:04:38;89.67;;;22.20;;
5117;SDS011;2578;51.622;7.046;2024-03-29T01:07:05;89.87;;;22.37;;
5117;SDS011;2578;51.622;7.046;2024-03-29T01:09:31;89.27;;;22.37;;
5117;SDS011;2578;51.622;7.046;2024-03-29T01:11:57;89.20;;;20.60;;
5117;SDS011;2578;51.622;7.046;2024-03-29T01:14:22;88.10;;;21.00;;
5117;SDS011;2578;51.622;7.046;2024-03-29T01:16:48;89.30;;;21.00;;
5117;SDS011;2578;51.622;7.046;2024-03-29T01:19:13;88.27;;;20.53;;
5117;SDS011;2578;51.622;7.046;2024-03-29T01:21:39;88.17;;;21.00;;
5117;SDS011;2578;51.622;7.046;2024-03-29T01:24:04;88.23;;;20.90;;
5117;SDS011;2578;51.622;7.046;2024-03-29T01:26:30;88.50;;;20.50;;
5117;SDS011;2578;51.622;7.046;2024-03-29T01:28:56;88.43;;;20.60;;
5117;SDS011;2578;51.622;7.046;2024-03-29T01:31:22;88.10;;;19.73;;
5117;SDS011;2578;51.622;7.046;2024-03-29T01:33:49;88.00;;;19.73;;
5117;SDS011;2578;51.622;7.046;2024-03-29T01:36:15;88.50;;;20.80;;
5117;SDS011;2578;51.622;7.046;2024-03-29T01:38:40;89.83;;;22.40;;
5117;SDS011;2578;51.622;7.046;2024-03-29T01:41:06;91.03;;;23.27;;
5117;SDS011;2578;51.622;7.046;2024-03-29T01:43:32;90.33;;;21.90;;
5117;SDS011;2578;51.622;7.046;2024-03-29T01:45:57;94.10;;;22.23;;
5117;SDS011;2578;51.622;7.046;2024-03-29T01:48:24;96.40;;;21.40;;
5117;SDS011;2578;51.622;7.046;2024-03-29T01:50:52;91.30;;;22.10;;
5117;SDS011;2578;51.622;7.046;2024-03-29T01:53:20;91.70;;;22.30;;
5117;SDS011;2578;51.622;7.046;2024-03-29T01:55:49;91.10;;;19.97;;
5117;SDS011;2578;51.622;7.046;2024-03-29T01:58:15;90.77;;;20.00;;
5117;SDS011;2578;51.622;7.046;2024-03-29T02:00:42;90.97;;;19.80;;
5117;SDS011;2578;51.622;7.046;2024-03-29T02:03:14;91.27;;;19.50;;
5117;SDS011;2578;51.622;7.046;2024-03-29T02:05:40;91.20;;;19.80;;
5117;SDS011;2578;51.622;7.046;2024-03-29T02:08:07;90.97;;;19.30;;
5117;SDS011;2578;51.622;7.046;2024-03-29T02:10:34;90.87;;;19.20;;
5117;SDS011;2578;51.622;7.046;2024-03-29T02:13:00;90.73;;;19.47;;
5117;SDS011;2578;51.622;7.046;2024-03-29T02:15:28;90.20;;;19.40;;
5117;SDS011;2578;51.622;7.046;2024-03-29T02:17:56;91.37;;;19.50;;
5117;SDS011;2578;51.622;7.046;2024-03-29T02:20:22;90.73;;;19.30;;
5117;SDS011;2578;51.622;7.046;2024-03-29T02:22:54;90.67;;;19.60;;
5117;SDS011;2578;51.622;7.046;2024-03-29T02:25:22;91.37;;;19.60;;
5117;SDS011;2578;51.622;7.046;2024-03-29T02:27:49;91.50;;;19.70;;
5117;SDS011;2578;51.622;7.046;2024-03-29T02:30:16;91.17;;;20.00;;
5117;SDS011;2578;51.622;7.046;2024-03-29T02:32:43;91.57;;;20.40;;
5117;SDS011;2578;51.622;7.046;2024-03-29T02:35:08;91.50;;;20.60;;
5117;SDS011;2578;51.622;7.046;2024-03-29T02:37:35;91.67;;;19.70;;
5117;SDS011;2578;51.622;7.046;2024-03-29T02:40:01;91.40;;;20.90;;
5117;SDS011;2578;51.622;7.046;2024-03-29T02:42:27;92.10;;;20.23;;
5117;SDS011;2578;51.622;7.046;2024-03-29T02:44:52;92.37;;;21.20;;
5117;SDS011;2578;51.622;7.046;2024-03-29T02:47:20;93.10;;;21.10;;
5117;SDS011;2578;51.622;7.046;2024-03-29T02:49:46;92.87;;;21.40;;
5117;SDS011;2578;51.622;7.046;2024-03-29T02:52:12;93.20;;;21.20;;
5117;SDS011;2578;51.622;7.046;2024-03-29T02:54:39;94.40;;;22.50;;
5117;SDS011;2578;51.622;7.046;2024-03-29T02:57:06;93.20;;;21.87;;
5117;SDS011;2578;51.622;7.046;2024-03-29T02:59:31;93.53;;;23.30;;
5117;SDS011;2578;51.622;7.046;2024-03-29T03:01:57;93.47;;;21.67;;
5117;SDS011;2578;51.622;7.046;2024-03-29T03:04:22;93.23;;;20.90;;
5117;SDS011;2578;51.622;7.046;2024-03-29T03:06:48;92.60;;;21.00;;
5117;SDS011;2578;51.622;7.046;2024-03-29T03:09:14;93.67;;;22.37;;
5117;SDS011;2578;51.622;7.046;2024-03-29T03:11:58;93.17;;;22.07;;
5117;SDS011;2578;51.622;7.046;2024-03-29T03:14:24;95.10;;;24.20;;
5117;SDS011;2578;51.622;7.046;2024-03-29T03:16:50;115.57;;;24.70;;
5117;SDS011;2578;51.622;7.046;2024-03-29T03:19:16;95.03;;;23.30;;
5117;SDS011;2578;51.622;7.046;2024-03-29T03:21:42;94.80;;;23.30;;
5117;SDS011;2578;51.622;7.046;2024-03-29T03:24:07;95.47;;;23.50;;
5117;SDS011;2578;51.622;7.046;2024-03-29T03:26:34;94.87;;;23.30;;
5117;SDS011;2578;51.622;7.046;2024-03-29T03:28:59;94.57;;;22.80;;
5117;SDS011;2578;51.622;7.046;2024-03-29T03:31:26;94.10;;;23.50;;
5117;SDS011;2578;51.622;7.046;2024-03-29T03:33:52;91.37;;;19.40;;
5117;SDS011;2578;51.622;7.046;2024-03-29T03:36:18;91.87;;;19.20;;
5117;SDS011;2578;51.622;7.046;2024-03-29T03:38:44;90.87;;;18.90;;
5117;SDS011;2578;51.622;7.046;2024-03-29T03:41:10;91.67;;;19.17;;
5117;SDS011;2578;51.622;7.046;2024-03-29T03:43:35;91.23;;;18.80;;
5117;SDS011;2578;51.622;7.046;2024-03-29T03:46:02;91.17;;;18.77;;
5117;SDS011;2578;51.622;7.046;2024-03-29T03:48:28;90.67;;;18.90;;
5117;SDS011;2578;51.622;7.046;2024-03-29T03:50:54;92.67;;;18.57;;
5117;SDS011;2578;51.622;7.046;2024-03-29T03:53:20;90.50;;;18.37;;
5117;SDS011;2578;51.622;7.046;2024-03-29T03:55:46;91.30;;;18.87;;
5117;SDS011;2578;51.622;7.046;2024-03-29T03:58:13;90.47;;;18.70;;
5117;SDS011;2578;51.622;7.046;2024-03-29T04:00:38;90.30;;;18.50;;
5117;SDS011;2578;51.622;7.046;2024-03-29T04:03:04;90.27;;;18.70;;
5117;SDS011;2578;51.622;7.046;2024-03-29T04:05:30;90.80;;;19.30;;
5117;SDS011;2578;51.622;7.046;2024-03-29T04:07:56;90.60;;;19.63;;
5117;SDS011;2578;51.622;7.046;2024-03-29T04:10:23;89.37;;;18.30;;
5117;SDS011;2578;51.622;7.046;2024-03-29T04:12:52;89.97;;;18.40;;
5117;SDS011;2578;51.622;7.046;2024-03-29T04:15:17;89.27;;;18.33;;
5117;SDS011;2578;51.622;7.046;2024-03-29T04:17:43;88.97;;;17.50;;
5117;SDS011;2578;51.622;7.046;2024-03-29T04:20:09;88.63;;;18.00;;
5117;SDS011;2578;51.622;7.046;2024-03-29T04:22:35;89.00;;;17.37;;
5117;SDS011;2578;51.622;7.046;2024-03-29T04:25:01;89.27;;;18.13;;
5117;SDS011;2578;51.622;7.046;2024-03-29T04:27:27;89.80;;;20.67;;
5117;SDS011;2578;51.622;7.046;2024-03-29T04:29:53;88.90;;;21.60;;
5117;SDS011;2578;51.622;7.046;2024-03-29T04:32:19;86.70;;;18.80;;
5117;SDS011;2578;51.622;7.046;2024-03-29T04:34:48;86.07;;;17.97;;
5117;SDS011;2578;51.622;7.046;2024-03-29T04:37:15;86.03;;;17.60;;
5117;SDS011;2578;51.622;7.046;2024-03-29T04:39:44;86.37;;;18.30;;
5117;SDS011;2578;51.622;7.046;2024-03-29T04:42:11;87.00;;;18.20;;
5117;SDS011;2578;51.622;7.046;2024-03-29T04:44:37;87.43;;;18.33;;
5117;SDS011;2578;51.622;7.046;2024-03-29T04:47:03;86.67;;;18.07;;
5117;SDS011;2578;51.622;7.046;2024-03-29T04:49:29;87.27;;;18.70;;
5117;SDS011;2578;51.622;7.046;2024-03-29T04:51:58;86.93;;;21.10;;
5117;SDS011;2578;51.622;7.046;2024-03-29T04:54:24;85.97;;;20.63;;
5117;SDS011;2578;51.622;7.046;2024-03-29T04:56:50;84.27;;;18.97;;
5117;SDS011;2578;51.622;7.046;2024-03-29T04:59:16;83.80;;;17.73;;
5117;SDS011;2578;51.622;7.046;2024-03-29T05:01:43;83.70;;;17.30;;
5117;SDS011;2578;51.622;7.046;2024-03-29T05:04:15;84.10;;;18.10;;
5117;SDS011;2578;51.622;7.046;2024-03-29T05:06:43;84.07;;;18.60;;
5117;SDS011;2578;51.622;7.046;2024-03-29T05:09:10;85.00;;;19.50;;
5117;SDS011;2578;51.622;7.046;2024-03-29T05:11:37;86.70;;;23.87;;
5117;SDS011;2578;51.622;7.046;2024-03-29T05:14:02;85.40;;;22.73;;
5117;SDS011;2578;51.622;7.046;2024-03-29T05:16:29;86.33;;;23.00;;
5117;SDS011;2578;51.622;7.046;2024-03-29T05:18:55;86.47;;;23.80;;
5117;SDS011;2578;51.622;7.046;2024-03-29T05:21:21;87.50;;;24.40;;
5117;SDS011;2578;51.622;7.046;2024-03-29T05:23:47;85.63;;;23.80;;
5117;SDS011;2578;51.622;7.046;2024-03-29T05:26:12;85.13;;;21.87;;
5117;SDS011;2578;51.622;7.046;2024-03-29T05:28:38;85.57;;;22.20;;
5117;SDS011;2578;51.622;7.046;2024-03-29T05:31:10;86.47;;;22.20;;
5117;SDS011;2578;51.622;7.046;2024-03-29T05:33:38;86.50;;;23.10;;
5117;SDS011;2578;51.622;7.046;2024-03-29T05:36:05;86.60;;;24.70;;
5117;SDS011;2578;51.622;7.046;2024-03-29T05:38:32;85.37;;;22.50;;
5117;SDS011;2578;51.622;7.046;2024-03-29T05:40:58;83.70;;;22.50;;
5117;SDS011;2578;51.622;7.046;2024-03-29T05:43:24;82.67;;;21.50;;
5117;SDS011;2578;51.622;7.046;2024-03-29T05:45:52;84.50;;;22.67;;
5117;SDS011;2578;51.622;7.046;2024-03-29T05:48:18;85.40;;;24.60;;
5117;SDS011;2578;51.622;7.046;2024-03-29T05:50:44;84.30;;;21.63;;
5117;SDS011;2578;51.622;7.046;2024-03-29T05:53:10;85.10;;;24.00;;
5117;SDS011;2578;51.622;7.046;2024-03-29T05:55:36;84.77;;;25.50;;
5117;SDS011;2578;51.622;7.046;2024-03-29T05:58:02;84.60;;;21.17;;
5117;SDS011;2578;51.622;7.046;2024-03-29T06:00:31;86.20;;;26.50;;
5117;SDS011;2578;51.622;7.046;2024-03-29T06:02:58;84.37;;;26.47;;
5117;SDS011;2578;51.622;7.046;2024-03-29T06:05:24;84.50;;;27.20;;
5117;SDS011;2578;51.622;7.046;2024-03-29T06:07:50;83.77;;;26.67;;
5117;SDS011;2578;51.622;7.046;2024-03-29T06:10:16;84.70;;;27.70;;
5117;SDS011;2578;51.622;7.046;2024-03-29T06:12:42;85.40;;;26.47;;
5117;SDS011;2578;51.622;7.046;2024-03-29T06:15:08;84.90;;;21.80;;
5117;SDS011;2578;51.622;7.046;2024-03-29T06:17:53;83.87;;;21.07;;
5117;SDS011;2578;51.622;7.046;2024-03-29T06:20:19;82.07;;;20.40;;
5117;SDS011;2578;51.622;7.046;2024-03-29T06:22:45;82.70;;;20.50;;
5117;SDS011;2578;51.622;7.046;2024-03-29T06:25:11;83.70;;;21.03;;
5117;SDS011;2578;51.622;7.046;2024-03-29T06:27:37;81.23;;;20.00;;
5117;SDS011;2578;51.622;7.046;2024-03-29T06:30:04;81.37;;;19.60;;
5117;SDS011;2578;51.622;7.046;2024-03-29T06:32:33;83.73;;;20.93;;
5117;SDS011;2578;51.622;7.046;2024-03-29T06:34:59;83.43;;;22.53;;
5117;SDS011;2578;51.622;7.046;2024-03-29T06:37:25;82.97;;;20.80;;
5117;SDS011;2578;51.622;7.046;2024-03-29T06:39:52;83.50;;;20.50;;
5117;SDS011;2578;51.622;7.046;2024-03-29T06:42:18;81.87;;;19.37;;
5117;SDS011;2578;51.622;7.046;2024-03-29T06:44:43;82.57;;;20.40;;
5117;SDS011;2578;51.622;7.046;2024-03-29T06:47:09;82.43;;;19.40;;
5117;SDS011;2578;51.622;7.046;2024-03-29T06:49:35;81.57;;;19.00;;
5117;SDS011;2578;51.622;7.046;2024-03-29T06:52:02;81.70;;;19.10;;
5117;SDS011;2578;51.622;7.046;2024-03-29T06:54:28;79.50;;;18.83;;
5117;SDS011;2578;51.622;7.046;2024-03-29T06:56:54;80.87;;;19.27;;
5117;SDS011;2578;51.622;7.046;2024-03-29T06:59:20;82.73;;;26.90;;
5117;SDS011;2578;51.622;7.046;2024-03-29T07:01:47;77.37;;;18.00;;
5117;SDS011;2578;51.622;7.046;2024-03-29T07:04:16;78.00;;;17.83;;
5117;SDS011;2578;51.622;7.046;2024-03-29T07:06:44;78.90;;;19.30;;
5117;SDS011;2578;51.622;7.046;2024-03-29T07:09:12;78.70;;;19.17;;
5117;SDS011;2578;51.622;7.046;2024-03-29T07:11:38;77.40;;;18.47;;
5117;SDS011;2578;51.622;7.046;2024-03-29T07:14:04;77.80;;;18.40;;
5117;SDS011;2578;51.622;7.046;2024-03-29T07:16:30;81.27;;;18.67;;
5117;SDS011;2578;51.622;7.046;2024-03-29T07:18:56;84.80;;;22.57;;
5117;SDS011;2578;51.622;7.046;2024-03-29T07:21:22;78.77;;;19.30;;
5117;SDS011;2578;51.622;7.046;2024-03-29T07:23:48;78.90;;;20.97;;
5117;SDS011;2578;51.622;7.046;2024-03-29T07:26:14;77.23;;;19.70;;
5117;SDS011;2578;51.622;7.046;2024-03-29T07:28:40;81.57;;;20.50;;
5117;SDS011;2578;51.622;7.046;2024-03-29T07:31:06;79.50;;;20.37;;
5117;SDS011;2578;51.622;7.046;2024-03-29T07:33:32;79.67;;;20.30;;
5117;SDS011;2578;51.622;7.046;2024-03-29T07:35:58;79.80;;;20.60;;
5117;SDS011;2578;51.622;7.046;2024-03-29T07:38:24;79.00;;;20.57;;
5117;SDS011;2578;51.622;7.046;2024-03-29T07:40:51;78.90;;;20.07;;
5117;SDS011;2578;51.622;7.046;2024-03-29T07:43:20;79.77;;;20.53;;
5117;SDS011;2578;51.622;7.046;2024-03-29T07:45:46;79.17;;;20.77;;
5117;SDS011;2578;51.622;7.046;2024-03-29T07:48:13;78.80;;;22.33;;
5117;SDS011;2578;51.622;7.046;2024-03-29T07:50:40;79.37;;;23.50;;
5117;SDS011;2578;51.622;7.046;2024-03-29T07:53:06;80.30;;;21.43;;
5117;SDS011;2578;51.622;7.046;2024-03-29T07:55:34;80.47;;;22.10;;
5117;SDS011;2578;51.622;7.046;2024-03-29T07:58:03;80.17;;;21.90;;
5117;SDS011;2578;51.622;7.046;2024-03-29T08:00:33;80.97;;;21.70;;
5117;SDS011;2578;51.622;7.046;2024-03-29T08:02:59;80.33;;;22.20;;
5117;SDS011;2578;51.622;7.046;2024-03-29T08:05:25;79.87;;;22.13;;
5117;SDS011;2578;51.622;7.046;2024-03-29T08:07:51;80.73;;;23.13;;
5117;SDS011;2578;51.622;7.046;2024-03-29T08:10:17;81.10;;;23.37;;
5117;SDS011;2578;51.622;7.046;2024-03-29T08:12:43;83.90;;;27.47;;
5117;SDS011;2578;51.622;7.046;2024-03-29T08:15:09;83.70;;;27.33;;
5117;SDS011;2578;51.622;7.046;2024-03-29T08:17:35;83.80;;;27.70;;
5117;SDS011;2578;51.622;7.046;2024-03-29T08:20:01;82.90;;;23.87;;
5117;SDS011;2578;51.622;7.046;2024-03-29T08:22:28;83.57;;;24.83;;
5117;SDS011;2578;51.622;7.046;2024-03-29T08:24:54;83.87;;;22.97;;
5117;SDS011;2578;51.622;7.046;2024-03-29T08:27:20;85.67;;;27.47;;
5117;SDS011;2578;51.622;7.046;2024-03-29T08:29:45;86.03;;;28.73;;
5117;SDS011;2578;51.622;7.046;2024-03-29T08:32:14;84.33;;;23.77;;
5117;SDS011;2578;51.622;7.046;2024-03-29T08:34:40;89.17;;;24.97;;
5117;SDS011;2578;51.622;7.046;2024-03-29T08:37:05;86.70;;;25.60;;
5117;SDS011;2578;51.622;7.046;2024-03-29T08:39:31;85.00;;;25.10;;
5117;SDS011;2578;51.622;7.046;2024-03-29T08:41:58;84.17;;;24.53;;
5117;SDS011;2578;51.622;7.046;2024-03-29T08:44:24;85.90;;;26.60;;
5117;SDS011;2578;51.622;7.046;2024-03-29T08:46:50;88.20;;;30.77;;
5117;SDS011;2578;51.622;7.046;2024-03-29T08:49:16;92.80;;;37.30;;
5117;SDS011;2578;51.622;7.046;2024-03-29T08:51:42;94.40;;;39.40;;
5117;SDS011;2578;51.622;7.046;2024-03-29T08:54:08;92.20;;;33.43;;
5117;SDS011;2578;51.622;7.046;2024-03-29T08:56:37;90.30;;;27.73;;
5117;SDS011;2578;51.622;7.046;2024-03-29T08:59:05;90.77;;;27.50;;
5117;SDS011;2578;51.622;7.046;2024-03-29T09:01:41;89.90;;;26.10;;
5117;SDS011;2578;51.622;7.046;2024-03-29T09:04:09;94.03;;;24.33;;
5117;SDS011;2578;51.622;7.046;2024-03-29T09:06:36;86.97;;;22.90;;
5117;SDS011;2578;51.622;7.046;2024-03-29T09:09:05;85.20;;;20.83;;
5117;SDS011;2578;51.622;7.046;2024-03-29T09:11:31;85.40;;;21.20;;
5117;SDS011;2578;51.622;7.046;2024-03-29T09:13:57;84.00;;;19.70;;
5117;SDS011;2578;51.622;7.046;2024-03-29T09:16:24;82.77;;;18.70;;
5117;SDS011;2578;51.622;7.046;2024-03-29T09:18:50;81.67;;;18.30;;
5117;SDS011;2578;51.622;7.046;2024-03-29T09:21:17;82.87;;;18.50;;
5117;SDS011;2578;51.622;7.046;2024-03-29T09:23:45;81.70;;;17.93;;
5117;SDS011;2578;51.622;7.046;2024-03-29T09:26:11;81.97;;;17.87;;
5117;SDS011;2578;51.622;7.046;2024-03-29T09:28:39;81.47;;;17.40;;
5117;SDS011;2578;51.622;7.046;2024-03-29T09:31:05;81.30;;;17.77;;
5117;SDS011;2578;51.622;7.046;2024-03-29T09:33:30;81.47;;;17.10;;
5117;SDS011;2578;51.622;7.046;2024-03-29T09:35:56;81.77;;;17.90;;
5117;SDS011;2578;51.622;7.046;2024-03-29T09:38:24;82.20;;;18.07;;
5117;SDS011;2578;51.622;7.046;2024-03-29T09:41:14;81.63;;;17.83;;
5117;SDS011;2578;51.622;7.046;2024-03-29T09:43:40;81.57;;;17.23;;
5117;SDS011;2578;51.622;7.046;2024-03-29T09:46:08;80.90;;;16.50;;
5117;SDS011;2578;51.622;7.046;2024-03-29T09:48:34;81.17;;;16.90;;
5117;SDS011;2578;51.622;7.046;2024-03-29T09:51:08;80.93;;;16.23;;
5117;SDS011;2578;51.622;7.046;2024-03-29T09:53:35;80.17;;;16.20;;
5117;SDS011;2578;51.622;7.046;2024-03-29T09:56:05;80.17;;;16.23;;
5117;SDS011;2578;51.622;7.046;2024-03-29T09:58:32;80.40;;;16.13;;
5117;SDS011;2578;51.622;7.046;2024-03-29T10:00:58;80.17;;;17.10;;
5117;SDS011;2578;51.622;7.046;2024-03-29T10:03:27;80.60;;;16.00;;
5117;SDS011;2578;51.622;7.046;2024-03-29T10:05:58;80.60;;;16.60;;
5117;SDS011;2578;51.622;7.046;2024-03-29T10:08:28;80.20;;;16.43;;
5117;SDS011;2578;51.622;7.046;2024-03-29T10:10:55;80.70;;;19.30;;
5117;SDS011;2578;51.622;7.046;2024-03-29T10:13:23;81.90;;;19.63;;
5117;SDS011;2578;51.622;7.046;2024-03-29T10:15:53;82.47;;;19.20;;
5117;SDS011;2578;51.622;7.046;2024-03-29T10:18:24;84.50;;;24.30;;
5117;SDS011;2578;51.622;7.046;2024-03-29T10:21:09;83.30;;;24.07;;
5117;SDS011;2578;51.622;7.046;2024-03-29T10:23:35;82.17;;;21.60;;
5117;SDS011;2578;51.622;7.046;2024-03-29T10:26:01;83.17;;;24.43;;
5117;SDS011;2578;51.622;7.046;2024-03-29T10:28:31;84.97;;;25.53;;
5117;SDS011;2578;51.622;7.046;2024-03-29T10:31:00;85.47;;;27.40;;
5117;SDS011;2578;51.622;7.046;2024-03-29T10:33:32;87.43;;;26.90;;
5117;SDS011;2578;51.622;7.046;2024-03-29T10:36:00;87.30;;;30.50;;
5117;SDS011;2578;51.622;7.046;2024-03-29T10:38:29;87.47;;;29.10;;
5117;SDS011;2578;51.622;7.046;2024-03-29T10:40:55;87.77;;;29.13;;
5117;SDS011;2578;51.622;7.046;2024-03-29T10:43:22;87.57;;;28.90;;
5117;SDS011;2578;51.622;7.046;2024-03-29T10:45:49;86.63;;;24.90;;
5117;SDS011;2578;51.622;7.046;2024-03-29T10:48:16;88.47;;;27.93;;
5117;SDS011;2578;51.622;7.046;2024-03-29T10:50:42;88.20;;;26.70;;
5117;SDS011;2578;51.622;7.046;2024-03-29T10:53:13;91.17;;;27.93;;
5117;SDS011;2578;51.622;7.046;2024-03-29T10:55:40;92.00;;;29.43;;
5117;SDS011;2578;51.622;7.046;2024-03-29T10:58:09;93.13;;;30.10;;
5117;SDS011;2578;51.622;7.046;2024-03-29T11:00:41;92.30;;;26.17;;
5117;SDS011;2578;51.622;7.046;2024-03-29T11:03:17;92.10;;;26.50;;
5117;SDS011;2578;51.622;7.046;2024-03-29T11:05:50;88.00;;;25.40;;
5117;SDS011;2578;51.622;7.046;2024-03-29T11:08:21;91.10;;;26.13;;
5117;SDS011;2578;51.622;7.046;2024-03-29T11:10:53;91.57;;;29.60;;
5117;SDS011;2578;51.622;7.046;2024-03-29T11:13:26;90.43;;;28.30;;
5117;SDS011;2578;51.622;7.046;2024-03-29T11:15:59;89.73;;;25.57;;
5117;SDS011;2578;51.622;7.046;2024-03-29T11:18:26;89.97;;;25.97;;
5117;SDS011;2578;51.622;7.046;2024-03-29T11:20:52;89.37;;;26.30;;
5117;SDS011;2578;51.622;7.046;2024-03-29T11:23:19;92.70;;;29.97;;
5117;SDS011;2578;51.622;7.046;2024-03-29T11:25:50;93.20;;;29.60;;
5117;SDS011;2578;51.622;7.046;2024-03-29T11:28:29;93.57;;;30.30;;
5117;SDS011;2578;51.622;7.046;2024-03-29T11:30:58;98.20;;;35.03;;
5117;SDS011;2578;51.622;7.046;2024-03-29T11:35:59;94.27;;;30.00;;
5117;SDS011;2578;51.622;7.046;2024-03-29T11:38:35;95.70;;;33.70;;
5117;SDS011;2578;51.622;7.046;2024-03-29T11:41:11;92.07;;;29.93;;
5117;SDS011;2578;51.622;7.046;2024-03-29T11:43:38;92.97;;;31.30;;
5117;SDS011;2578;51.622;7.046;2024-03-29T11:46:08;92.53;;;29.90;;
5117;SDS011;2578;51.622;7.046;2024-03-29T11:48:35;92.80;;;30.50;;
5117;SDS011;2578;51.622;7.046;2024-03-29T11:51:05;93.97;;;33.20;;
5117;SDS011;2578;51.622;7.046;2024-03-29T11:53:36;92.07;;;35.53;;
5117;SDS011;2578;51.622;7.046;2024-03-29T11:56:02;94.50;;;38.50;;
5117;SDS011;2578;51.622;7.046;2024-03-29T11:58:29;78.17;;;22.67;;
5117;SDS011;2578;51.622;7.046;2024-03-29T12:00:56;77.60;;;22.40;;
5117;SDS011;2578;51.622;7.046;2024-03-29T12:03:23;80.93;;;24.37;;
5117;SDS011;2578;51.622;7.046;2024-03-29T12:05:51;78.67;;;21.67;;
5117;SDS011;2578;51.622;7.046;2024-03-29T12:08:19;82.20;;;24.93;;
5117;SDS011;2578;51.622;7.046;2024-03-29T12:10:45;80.60;;;23.30;;
5117;SDS011;2578;51.622;7.046;2024-03-29T12:13:11;80.10;;;22.77;;
5117;SDS011;2578;51.622;7.046;2024-03-29T12:15:39;81.47;;;24.27;;
5117;SDS011;2578;51.622;7.046;2024-03-29T12:18:06;82.50;;;24.40;;
5117;SDS011;2578;51.622;7.046;2024-03-29T12:20:32;80.70;;;22.13;;
5117;SDS011;2578;51.622;7.046;2024-03-29T12:22:59;82.17;;;23.43;;
5117;SDS011;2578;51.622;7.046;2024-03-29T12:25:28;80.87;;;21.73;;
5117;SDS011;2578;51.622;7.046;2024-03-29T12:27:55;81.20;;;22.20;;
5117;SDS011;2578;51.622;7.046;2024-03-29T12:30:20;81.30;;;22.70;;
5117;SDS011;2578;51.622;7.046;2024-03-29T12:32:46;83.63;;;23.63;;
5117;SDS011;2578;51.622;7.046;2024-03-29T12:35:16;81.60;;;23.30;;
5117;SDS011;2578;51.622;7.046;2024-03-29T12:37:48;80.97;;;22.90;;
5117;SDS011;2578;51.622;7.046;2024-03-29T12:40:18;80.23;;;21.90;;
5117;SDS011;2578;51.622;7.046;2024-03-29T12:42:48;79.90;;;21.23;;
5117;SDS011;2578;51.622;7.046;2024-03-29T12:45:14;90.20;;;22.20;;
5117;SDS011;2578;51.622;7.046;2024-03-29T12:47:40;79.83;;;21.70;;
5117;SDS011;2578;51.622;7.046;2024-03-29T12:50:06;80.60;;;22.20;;
5117;SDS011;2578;51.622;7.046;2024-03-29T12:52:41;79.43;;;21.70;;
5117;SDS011;2578;51.622;7.046;2024-03-29T12:55:07;79.90;;;22.67;;
5117;SDS011;2578;51.622;7.046;2024-03-29T12:57:39;79.70;;;22.23;;
5117;SDS011;2578;51.622;7.046;2024-03-29T13:00:07;79.60;;;22.17;;
5117;SDS011;2578;51.622;7.046;2024-03-29T13:02:37;79.60;;;22.00;;
5117;SDS011;2578;51.622;7.046;2024-03-29T13:05:03;79.57;;;21.20;;
5117;SDS011;2578;51.622;7.046;2024-03-29T13:07:29;81.57;;;23.50;;
5117;SDS011;2578;51.622;7.046;2024-03-29T13:09:56;81.10;;;23.80;;
5117;SDS011;2578;51.622;7.046;2024-03-29T13:12:24;83.00;;;23.70;;
5117;SDS011;2578;51.622;7.046;2024-03-29T13:14:49;82.67;;;25.40;;
5117;SDS011;2578;51.622;7.046;2024-03-29T13:17:15;84.40;;;22.80;;
5117;SDS011;2578;51.622;7.046;2024-03-29T13:19:41;83.80;;;22.37;;
5117;SDS011;2578;51.622;7.046;2024-03-29T13:22:07;84.80;;;24.90;;
5117;SDS011;2578;51.622;7.046;2024-03-29T13:24:33;81.80;;;23.37;;
5117;SDS011;2578;51.622;7.046;2024-03-29T13:26:59;80.53;;;22.33;;
5117;SDS011;2578;51.622;7.046;2024-03-29T13:29:25;81.30;;;23.60;;
5117;SDS011;2578;51.622;7.046;2024-03-29T13:31:51;81.37;;;21.20;;
5117;SDS011;2578;51.622;7.046;2024-03-29T13:34:17;88.17;;;21.27;;
5117;SDS011;2578;51.622;7.046;2024-03-29T13:36:43;81.00;;;20.77;;
5117;SDS011;2578;51.622;7.046;2024-03-29T13:39:09;85.57;;;21.77;;
5117;SDS011;2578;51.622;7.046;2024-03-29T13:41:38;101.50;;;44.27;;
5117;SDS011;2578;51.622;7.046;2024-03-29T13:44:05;86.90;;;21.23;;
5117;SDS011;2578;51.622;7.046;2024-03-29T13:46:32;85.10;;;21.00;;
5117;SDS011;2578;51.622;7.046;2024-03-29T13:48:58;83.77;;;20.70;;
5117;SDS011;2578;51.622;7.046;2024-03-29T13:51:24;85.60;;;22.70;;
5117;SDS011;2578;51.622;7.046;2024-03-29T13:53:50;93.20;;;22.80;;
5117;SDS011;2578;51.622;7.046;2024-03-29T13:56:16;85.27;;;21.57;;
5117;SDS011;2578;51.622;7.046;2024-03-29T13:58:42;89.97;;;26.40;;
5117;SDS011;2578;51.622;7.046;2024-03-29T14:01:08;89.30;;;25.57;;
5117;SDS011;2578;51.622;7.046;2024-03-29T14:03:34;88.50;;;25.03;;
5117;SDS011;2578;51.622;7.046;2024-03-29T14:06:00;88.73;;;24.50;;
5117;SDS011;2578;51.622;7.046;2024-03-29T14:08:26;86.77;;;21.90;;
5117;SDS011;2578;51.622;7.046;2024-03-29T14:10:52;86.37;;;21.40;;
5117;SDS011;2578;51.622;7.046;2024-03-29T14:13:18;89.17;;;24.10;;
5117;SDS011;2578;51.622;7.046;2024-03-29T14:15:44;87.67;;;21.70;;
5117;SDS011;2578;51.622;7.046;2024-03-29T14:18:10;87.37;;;20.40;;
5117;SDS011;2578;51.622;7.046;2024-03-29T14:20:36;87.27;;;20.10;;
5117;SDS011;2578;51.622;7.046;2024-03-29T14:23:02;89.40;;;22.83;;
5117;SDS011;2578;51.622;7.046;2024-03-29T14:25:31;87.40;;;22.00;;
5117;SDS011;2578;51.622;7.046;2024-03-29T14:27:57;88.50;;;22.23;;
5117;SDS011;2578;51.622;7.046;2024-03-29T14:30:24;88.40;;;22.30;;
5117;SDS011;2578;51.622;7.046;2024-03-29T14:32:51;88.97;;;23.00;;
5117;SDS011;2578;51.622;7.046;2024-03-29T14:35:17;87.63;;;21.30;;
5117;SDS011;2578;51.622;7.046;2024-03-29T14:37:44;86.67;;;20.30;;
5117;SDS011;2578;51.622;7.046;2024-03-29T14:40:10;87.17;;;20.80;;
5117;SDS011;2578;51.622;7.046;2024-03-29T14:42:43;87.40;;;20.63;;
5117;SDS011;2578;51.622;7.046;2024-03-29T14:45:09;86.83;;;20.97;;
5117;SDS011;2578;51.622;7.046;2024-03-29T14:47:38;87.10;;;20.70;;
5117;SDS011;2578;51.622;7.046;2024-03-29T14:50:04;89.00;;;21.70;;